createdAt,value
2022-10-18T00:00:00.113Z,1020.22
2022-10-18T00:01:00.101Z,1020.18
2022-10-18T00:02:00.152Z,1020.22
2022-10-18T00:03:00.040Z,1020.22
2022-10-18T00:04:00.046Z,1020.28
2022-10-18T00:05:00.005Z,1020.26
2022-10-18T00:05:59.976Z,1020.24
2022-10-18T00:06:59.958Z,1020.22
2022-10-18T00:07:59.935Z,1020.27
2022-10-18T00:08:59.914Z,1020.25
2022-10-18T00:09:59.892Z,1020.25
2022-10-18T00:10:59.869Z,1020.21
2022-10-18T00:11:59.849Z,1020.25
2022-10-18T00:12:59.826Z,1020.27
2022-10-18T00:13:59.831Z,1020.25
2022-10-18T00:14:59.787Z,1020.24
2022-10-18T00:15:59.762Z,1020.20
2022-10-18T00:16:59.745Z,1020.20
2022-10-18T00:17:59.722Z,1020.24
2022-10-18T00:18:59.703Z,1020.22
2022-10-18T00:25:59.557Z,1020.17
2022-10-18T00:26:59.534Z,1020.19
2022-10-18T00:27:59.509Z,1020.16
2022-10-18T00:28:59.567Z,1020.16
2022-10-18T00:29:59.490Z,1020.16
2022-10-18T00:30:59.450Z,1020.25
2022-10-18T00:31:59.426Z,1020.22
2022-10-18T00:32:59.404Z,1020.29
2022-10-18T00:33:59.386Z,1020.27
2022-10-18T00:34:59.365Z,1020.26
2022-10-18T00:35:59.338Z,1020.25
2022-10-18T00:36:59.321Z,1020.25
2022-10-18T00:37:59.297Z,1020.26
2022-10-18T00:38:59.278Z,1020.26
2022-10-18T00:39:59.264Z,1020.23
2022-10-18T00:40:59.235Z,1020.25
2022-10-18T00:41:59.212Z,1020.26
2022-10-18T00:42:59.194Z,1020.23
2022-10-18T00:43:59.168Z,1020.21
2022-10-18T00:44:59.156Z,1020.21
2022-10-18T00:45:59.150Z,1020.20
2022-10-18T00:46:59.109Z,1020.19
2022-10-18T00:47:59.085Z,1020.15
2022-10-18T00:48:59.066Z,1020.18
2022-10-18T00:49:59.047Z,1020.18
2022-10-18T00:50:59.025Z,1020.18
2022-10-18T00:51:59.002Z,1020.14
2022-10-18T00:52:58.984Z,1020.14
2022-10-18T00:53:58.961Z,1020.13
2022-10-18T00:54:58.942Z,1020.17
2022-10-18T00:55:58.919Z,1020.14
2022-10-18T00:59:58.837Z,1020.12
2022-10-18T01:00:58.815Z,1020.09
2022-10-18T01:01:58.899Z,1020.10
2022-10-18T01:02:58.772Z,1020.11
2022-10-18T01:03:58.749Z,1020.13
2022-10-18T01:04:58.726Z,1020.13
2022-10-18T01:05:58.713Z,1020.06
2022-10-18T01:06:58.685Z,1020.04
2022-10-18T01:07:58.661Z,1020.01
2022-10-18T01:08:58.638Z,1020.01
2022-10-18T01:09:58.622Z,1019.96
2022-10-18T01:10:58.595Z,1019.99
2022-10-18T01:11:58.575Z,1019.96
2022-10-18T01:12:58.552Z,1019.96
2022-10-18T01:13:58.536Z,1019.98
2022-10-18T01:14:58.512Z,1019.98
2022-10-18T01:15:58.494Z,1019.96
2022-10-18T01:16:58.467Z,1019.95
2022-10-18T01:17:58.471Z,1019.99
2022-10-18T01:18:58.427Z,1019.94
2022-10-18T01:19:58.409Z,1019.95
2022-10-18T01:20:58.383Z,1019.95
2022-10-18T01:21:58.368Z,1019.91
2022-10-18T01:22:58.348Z,1019.88
2022-10-18T01:23:58.325Z,1019.88
2022-10-18T01:24:58.380Z,1019.87
2022-10-18T01:25:58.280Z,1019.87
2022-10-18T01:26:58.259Z,1019.88
2022-10-18T01:27:58.239Z,1019.90
2022-10-18T01:28:58.320Z,1019.95
2022-10-18T01:29:58.195Z,1019.94
2022-10-18T01:30:58.174Z,1019.97
2022-10-18T01:31:59.581Z,1020.01
2022-10-18T01:33:58.236Z,1020.00
2022-10-18T01:34:58.098Z,1019.96
2022-10-18T01:35:58.073Z,1019.97
2022-10-18T01:36:58.043Z,1019.97
2022-10-18T01:37:58.026Z,1019.90
2022-10-18T01:38:58.010Z,1019.93
2022-10-18T01:39:57.986Z,1019.93
2022-10-18T01:40:57.975Z,1019.89
2022-10-18T01:41:57.947Z,1019.88
2022-10-18T01:42:57.966Z,1019.81
2022-10-18T01:43:57.901Z,1019.85
2022-10-18T01:44:57.886Z,1019.81
2022-10-18T01:45:57.862Z,1019.83
2022-10-18T01:46:57.832Z,1019.78
2022-10-18T01:47:57.816Z,1019.85
2022-10-18T01:48:57.791Z,1019.86
2022-10-18T01:49:57.790Z,1019.88
2022-10-18T01:50:57.749Z,1019.88
2022-10-18T01:51:57.772Z,1019.91
2022-10-18T01:52:57.708Z,1019.89
2022-10-18T01:53:57.688Z,1019.90
2022-10-18T02:08:12.084Z,1019.87
2022-10-18T02:08:57.370Z,1019.85
2022-10-18T02:39:56.705Z,1019.77
2022-10-18T02:40:56.686Z,1019.82
2022-10-18T02:41:56.659Z,1019.78
2022-10-18T02:42:56.639Z,1019.83
2022-10-18T03:11:56.023Z,1019.83
2022-10-18T03:12:56.006Z,1019.80
2022-10-18T03:13:55.984Z,1019.81
2022-10-18T03:14:55.956Z,1019.81
2022-10-18T03:15:55.949Z,1019.81
2022-10-18T03:16:55.917Z,1019.81
2022-10-18T03:17:55.897Z,1019.82
2022-10-18T03:42:55.360Z,1019.84
2022-10-18T03:43:55.340Z,1019.81
2022-10-18T03:44:55.315Z,1019.83
2022-10-18T03:45:55.299Z,1019.81
2022-10-18T03:46:55.274Z,1019.79
2022-10-18T03:47:55.261Z,1019.78
2022-10-18T03:48:55.234Z,1019.76
2022-10-18T03:49:57.204Z,1019.79
2022-10-18T03:50:55.192Z,1019.76
2022-10-18T03:51:55.160Z,1019.76
2022-10-18T04:14:55.729Z,1019.66
2022-10-18T04:15:54.651Z,1019.65
2022-10-18T04:16:54.633Z,1019.64
2022-10-18T04:17:54.610Z,1019.64
2022-10-18T04:18:54.593Z,1019.62
2022-10-18T04:19:54.574Z,1019.62
2022-10-18T04:20:54.545Z,1019.65
2022-10-18T04:21:54.524Z,1019.64
2022-10-18T04:22:54.506Z,1019.64
2022-10-18T04:23:54.489Z,1019.68
2022-10-18T04:24:54.465Z,1019.70
2022-10-18T04:25:54.443Z,1019.71
2022-10-18T04:46:54.012Z,1019.81
2022-10-18T04:47:53.972Z,1019.84
2022-10-18T04:48:53.947Z,1019.81
2022-10-18T04:49:53.930Z,1019.84
2022-10-18T04:50:53.905Z,1019.83
2022-10-18T04:51:53.882Z,1019.86
2022-10-18T04:52:53.866Z,1019.89
2022-10-18T04:53:53.840Z,1019.86
2022-10-18T04:54:53.817Z,1019.92
2022-10-18T04:55:53.797Z,1019.89
2022-10-18T04:56:53.774Z,1019.91
2022-10-18T04:57:53.771Z,1019.91
2022-10-18T04:58:53.737Z,1019.87
2022-10-18T04:59:53.711Z,1019.91
2022-10-18T05:17:53.322Z,1019.82
2022-10-18T05:18:53.328Z,1019.82
2022-10-18T05:19:53.276Z,1019.82
2022-10-18T05:20:53.264Z,1019.85
2022-10-18T05:21:53.239Z,1019.90
2022-10-18T05:22:53.224Z,1019.92
2022-10-18T05:23:53.197Z,1019.92
2022-10-18T05:24:53.179Z,1019.91
2022-10-18T05:25:53.166Z,1019.86
2022-10-18T05:26:53.135Z,1019.88
2022-10-18T05:27:53.113Z,1019.88
2022-10-18T05:28:53.156Z,1019.88
2022-10-18T05:29:53.070Z,1019.90
2022-10-18T05:30:53.050Z,1019.89
2022-10-18T05:31:53.032Z,1019.91
2022-10-18T05:32:53.003Z,1019.89
2022-10-18T05:33:52.983Z,1019.88
2022-10-18T05:34:52.983Z,1019.84
2022-10-18T05:50:52.636Z,1019.81
2022-10-18T05:51:52.599Z,1019.84
2022-10-18T05:52:52.579Z,1019.84
2022-10-18T05:53:52.552Z,1019.83
2022-10-18T05:54:52.538Z,1019.85
2022-10-18T05:55:52.510Z,1019.84
2022-10-18T05:56:52.487Z,1019.87
2022-10-18T05:57:52.464Z,1019.89
2022-10-18T05:58:52.449Z,1019.87
2022-10-18T05:59:52.421Z,1019.97
2022-10-18T06:00:52.413Z,1019.97
2022-10-18T06:01:52.376Z,1020.00
2022-10-18T06:02:53.206Z,1019.99
2022-10-18T06:03:52.339Z,1020.00
2022-10-18T06:04:52.316Z,1020.03
2022-10-18T06:05:52.310Z,1020.06
2022-10-18T06:06:52.293Z,1020.09
2022-10-18T06:07:52.249Z,1020.09
2022-10-18T06:08:52.231Z,1020.09
2022-10-18T06:09:52.208Z,1020.05
2022-10-18T06:24:56.496Z,1020.15
2022-10-18T06:25:51.863Z,1020.16
2022-10-18T06:26:51.841Z,1020.18
2022-10-18T06:27:51.817Z,1020.19
2022-10-18T06:28:51.865Z,1020.19
2022-10-18T06:29:51.776Z,1020.21
2022-10-18T06:30:51.760Z,1020.17
2022-10-18T06:31:51.736Z,1020.15
2022-10-18T06:32:51.711Z,1020.12
2022-10-18T06:33:51.698Z,1020.13
2022-10-18T06:34:51.675Z,1020.07
2022-10-18T06:35:51.649Z,1020.10
2022-10-18T06:36:56.327Z,1020.15
2022-10-18T06:37:51.610Z,1020.17
2022-10-18T06:38:51.608Z,1020.19
2022-10-18T06:39:51.560Z,1020.23
2022-10-18T06:40:51.549Z,1020.26
2022-10-18T06:41:51.519Z,1020.27
2022-10-18T06:43:00.326Z,1020.27
2022-10-18T06:43:51.476Z,1020.30
2022-10-18T06:44:51.457Z,1020.31
2022-10-18T06:56:51.197Z,1020.43
2022-10-18T06:57:51.184Z,1020.43
2022-10-18T06:58:51.215Z,1020.45
2022-10-18T06:59:51.132Z,1020.48
2022-10-18T07:00:51.112Z,1020.47
2022-10-18T07:01:51.120Z,1020.48
2022-10-18T07:02:51.071Z,1020.50
2022-10-18T07:03:51.051Z,1020.48
2022-10-18T07:04:51.030Z,1020.49
2022-10-18T07:05:51.002Z,1020.54
2022-10-18T07:06:50.986Z,1020.55
2022-10-18T07:07:54.245Z,1020.58
2022-10-18T07:08:50.939Z,1020.54
2022-10-18T07:09:50.918Z,1020.53
2022-10-18T07:10:50.915Z,1020.49
2022-10-18T07:11:50.877Z,1020.48
2022-10-18T07:12:53.453Z,1020.49
2022-10-18T07:13:50.833Z,1020.49
2022-10-18T07:14:50.812Z,1020.53
2022-10-18T07:15:50.789Z,1020.59
2022-10-18T07:16:50.770Z,1020.65
2022-10-18T07:25:50.575Z,1020.74
2022-10-18T07:26:50.573Z,1020.76
2022-10-18T07:27:50.534Z,1020.78
2022-10-18T07:28:50.551Z,1020.86
2022-10-18T07:29:50.490Z,1020.88
2022-10-18T07:30:50.472Z,1020.92
2022-10-18T07:31:50.451Z,1020.90
2022-10-18T07:32:50.426Z,1020.89
2022-10-18T07:33:50.422Z,1020.91
2022-10-18T07:34:50.380Z,1020.93
2022-10-18T07:35:50.356Z,1020.92
2022-10-18T07:36:50.339Z,1020.90
2022-10-18T07:37:50.315Z,1020.93
2022-10-18T07:38:50.300Z,1020.95
2022-10-18T07:39:50.274Z,1020.99
2022-10-18T07:40:50.257Z,1021.04
2022-10-18T07:41:50.228Z,1021.04
2022-10-18T07:42:50.238Z,1021.16
2022-10-18T07:43:50.193Z,1021.16
2022-10-18T07:44:50.166Z,1021.19
2022-10-18T07:45:50.142Z,1021.18
2022-10-18T07:46:50.125Z,1021.20
2022-10-18T07:47:50.100Z,1021.21
2022-10-18T07:48:50.077Z,1021.25
2022-10-18T07:49:50.050Z,1021.20
2022-10-18T07:50:50.033Z,1021.26
2022-10-18T07:57:49.878Z,1021.23
2022-10-18T07:58:49.909Z,1021.24
2022-10-18T07:59:49.839Z,1021.21
2022-10-18T08:00:49.822Z,1021.16
2022-10-18T08:01:49.851Z,1021.20
2022-10-18T08:02:49.775Z,1021.15
2022-10-18T08:03:49.753Z,1021.15
2022-10-18T08:04:49.734Z,1021.17
2022-10-18T08:05:49.712Z,1021.16
2022-10-18T08:06:49.691Z,1021.20
2022-10-18T08:07:49.670Z,1021.23
2022-10-18T08:08:49.643Z,1021.23
2022-10-18T08:09:49.639Z,1021.25
2022-10-18T08:10:49.602Z,1021.22
2022-10-18T08:11:49.597Z,1021.22
2022-10-18T08:12:49.563Z,1021.17
2022-10-18T08:13:49.537Z,1021.15
2022-10-18T08:14:49.543Z,1021.13
2022-10-18T08:15:49.487Z,1021.09
2022-10-18T08:16:49.472Z,1021.14
2022-10-18T08:17:49.445Z,1021.19
2022-10-18T08:18:49.432Z,1021.26
2022-10-18T08:19:58.564Z,1021.27
2022-10-18T08:20:49.384Z,1021.31
2022-10-18T08:21:49.365Z,1021.35
2022-10-18T08:22:49.340Z,1021.39
2022-10-18T08:23:49.318Z,1021.44
2022-10-18T08:24:49.299Z,1021.43
2022-10-18T08:29:49.229Z,1021.51
2022-10-18T08:30:49.189Z,1021.53
2022-10-18T08:31:49.147Z,1021.52
2022-10-18T08:32:49.128Z,1021.56
2022-10-18T08:33:49.109Z,1021.53
2022-10-18T08:34:49.088Z,1021.50
2022-10-18T08:35:49.057Z,1021.49
2022-10-18T08:36:49.035Z,1021.49
2022-10-18T08:37:49.014Z,1021.53
2022-10-18T08:38:48.992Z,1021.50
2022-10-18T08:39:48.970Z,1021.55
2022-10-18T08:40:48.951Z,1021.53
2022-10-18T08:41:48.925Z,1021.60
2022-10-18T08:42:48.908Z,1021.59
2022-10-18T08:43:48.881Z,1021.59
2022-10-18T08:44:48.872Z,1021.61
2022-10-18T08:45:48.841Z,1021.58
2022-10-18T08:46:48.844Z,1021.54
2022-10-18T08:47:48.803Z,1021.55
2022-10-18T08:48:48.779Z,1021.54
2022-10-18T08:49:48.764Z,1021.56
2022-10-18T08:50:48.739Z,1021.57
2022-10-18T08:51:48.710Z,1021.54
2022-10-18T08:52:48.693Z,1021.59
2022-10-18T08:53:48.667Z,1021.58
2022-10-18T08:54:48.652Z,1021.56
2022-10-18T08:55:48.623Z,1021.57
2022-10-18T08:56:48.603Z,1021.52
2022-10-18T08:57:48.581Z,1021.57
2022-10-18T08:58:48.561Z,1021.56
2022-10-18T09:02:48.497Z,1021.62
2022-10-18T09:03:48.534Z,1021.65
2022-10-18T09:04:48.432Z,1021.66
2022-10-18T09:05:48.410Z,1021.69
2022-10-18T09:06:48.388Z,1021.68
2022-10-18T09:07:48.364Z,1021.69
2022-10-18T09:08:48.345Z,1021.68
2022-10-18T09:09:48.319Z,1021.69
2022-10-18T09:10:48.382Z,1021.63
2022-10-18T09:11:48.277Z,1021.64
2022-10-18T09:12:48.255Z,1021.65
2022-10-18T09:13:48.235Z,1021.68
2022-10-18T09:14:48.210Z,1021.71
2022-10-18T09:15:48.191Z,1021.74
2022-10-18T09:16:48.172Z,1021.75
2022-10-18T09:17:48.150Z,1021.75
2022-10-18T09:18:48.152Z,1021.78
2022-10-18T09:19:48.169Z,1021.79
2022-10-18T09:20:48.086Z,1021.78
2022-10-18T09:21:48.059Z,1021.77
2022-10-18T09:22:48.040Z,1021.78
2022-10-18T09:23:48.018Z,1021.75
2022-10-18T09:24:47.993Z,1021.76
2022-10-18T09:25:47.980Z,1021.76
2022-10-18T09:26:47.951Z,1021.77
2022-10-18T09:27:47.930Z,1021.76
2022-10-18T09:28:47.923Z,1021.74
2022-10-18T09:29:47.888Z,1021.78
2022-10-18T09:30:47.872Z,1021.81
2022-10-18T09:31:47.847Z,1021.83
2022-10-18T09:32:47.822Z,1021.83
2022-10-18T09:33:47.806Z,1021.88
2022-10-18T09:34:47.799Z,1021.88
2022-10-18T09:35:47.776Z,1021.82
2022-10-18T09:36:47.737Z,1021.78
2022-10-18T09:37:47.723Z,1021.76
2022-10-18T09:38:47.697Z,1021.78
2022-10-18T09:39:47.673Z,1021.79
2022-10-18T10:00:47.220Z,1021.93
2022-10-18T10:01:47.201Z,1021.92
2022-10-18T10:02:47.236Z,1021.92
2022-10-18T10:29:46.671Z,1022.15
2022-10-18T10:30:46.580Z,1022.09
2022-10-18T10:31:46.562Z,1022.06
2022-10-18T10:32:46.537Z,1022.01
2022-10-18T10:33:46.515Z,1022.02
2022-10-18T10:55:46.050Z,1022.02
2022-10-18T10:56:46.025Z,1022.05
2022-10-18T10:57:46.010Z,1022.01
2022-10-18T10:58:45.985Z,1022.06
2022-10-18T10:59:45.964Z,1022.05
2022-10-18T11:22:45.482Z,1022.15
2022-10-18T11:23:45.461Z,1022.12
2022-10-18T11:24:45.438Z,1022.06
2022-10-18T11:25:45.421Z,1022.08
2022-10-18T11:26:47.877Z,1022.08
2022-10-18T11:27:45.380Z,1022.06
2022-10-18T11:28:45.407Z,1022.04
2022-10-18T11:29:45.347Z,1022.06
2022-10-18T11:48:44.939Z,1021.96
2022-10-18T11:49:44.920Z,1021.99
2022-10-18T11:50:44.894Z,1022.02
2022-10-18T11:52:06.731Z,1022.02
2022-10-18T11:52:44.854Z,1022.06
2022-10-18T11:53:48.352Z,1022.04
2022-10-18T11:54:44.817Z,1022.00
2022-10-18T11:55:44.797Z,1021.95
2022-10-18T11:56:44.773Z,1021.95
2022-10-18T12:15:44.373Z,1021.82
2022-10-18T12:16:51.536Z,1021.86
2022-10-18T12:17:49.877Z,1021.78
2022-10-18T12:18:44.369Z,1021.75
2022-10-18T12:19:44.292Z,1021.75
2022-10-18T12:20:44.269Z,1021.80
2022-10-18T12:21:44.249Z,1021.81
2022-10-18T12:22:44.236Z,1021.85
2022-10-18T12:23:44.214Z,1021.90
2022-10-18T12:24:44.191Z,1021.86
2022-10-18T12:25:44.169Z,1021.83
2022-10-18T12:42:43.817Z,1021.88
2022-10-18T12:43:43.796Z,1021.85
2022-10-18T12:44:43.771Z,1021.81
2022-10-18T12:45:43.764Z,1021.79
2022-10-18T12:46:43.755Z,1021.78
2022-10-18T12:47:43.709Z,1021.79
2022-10-18T12:48:43.692Z,1021.82
2022-10-18T12:49:44.629Z,1021.87
2022-10-18T12:50:43.657Z,1021.85
2022-10-18T12:51:43.629Z,1021.84
2022-10-18T12:52:43.624Z,1021.82
2022-10-18T12:53:43.591Z,1021.81
2022-10-18T12:54:43.569Z,1021.87
2022-10-18T13:11:43.219Z,1021.78
2022-10-18T13:12:43.190Z,1021.78
2022-10-18T13:13:43.182Z,1021.78
2022-10-18T13:14:53.423Z,1021.79
2022-10-18T13:15:43.134Z,1021.78
2022-10-18T13:16:43.136Z,1021.78
2022-10-18T13:17:43.096Z,1021.78
2022-10-18T13:18:43.097Z,1021.75
2022-10-18T13:19:43.050Z,1021.76
2022-10-18T13:20:43.027Z,1021.75
2022-10-18T13:21:43.012Z,1021.77
2022-10-18T13:22:42.986Z,1021.78
2022-10-18T13:23:42.966Z,1021.81
2022-10-18T13:24:42.954Z,1021.80
2022-10-18T13:39:42.637Z,1021.76
2022-10-18T13:40:42.612Z,1021.72
2022-10-18T13:41:42.592Z,1021.71
2022-10-18T13:42:42.569Z,1021.71
2022-10-18T13:43:42.550Z,1021.77
2022-10-18T13:44:42.528Z,1021.77
2022-10-18T13:45:42.509Z,1021.77
2022-10-18T13:46:42.484Z,1021.81
2022-10-18T13:47:42.470Z,1021.79
2022-10-18T13:48:42.446Z,1021.83
2022-10-18T13:49:42.426Z,1021.76
2022-10-18T13:50:42.424Z,1021.76
2022-10-18T13:51:42.381Z,1021.79
2022-10-18T13:52:42.359Z,1021.77
2022-10-18T13:53:42.339Z,1021.82
2022-10-18T13:54:42.318Z,1021.82
2022-10-18T13:55:42.297Z,1021.82
2022-10-18T13:56:42.274Z,1021.80
2022-10-18T13:57:42.252Z,1021.84
2022-10-18T13:58:48.734Z,1021.83
2022-10-18T13:59:42.209Z,1021.87
2022-10-18T14:00:48.282Z,1021.87
2022-10-18T14:11:01.330Z,1021.80
2022-10-18T14:11:45.388Z,1021.83
2022-10-18T14:12:41.944Z,1021.79
2022-10-18T14:13:41.916Z,1021.82
2022-10-18T14:14:41.898Z,1021.82
2022-10-18T14:15:41.872Z,1021.82
2022-10-18T14:16:41.862Z,1021.83
2022-10-18T14:17:41.837Z,1021.84
2022-10-18T14:18:41.812Z,1021.88
2022-10-18T14:19:41.788Z,1021.82
2022-10-18T14:21:01.574Z,1021.81
2022-10-18T14:21:41.751Z,1021.79
2022-10-18T14:22:41.747Z,1021.83
2022-10-18T14:23:41.714Z,1021.82
2022-10-18T14:24:41.686Z,1021.85
2022-10-18T14:25:41.663Z,1021.89
2022-10-18T14:26:41.650Z,1021.87
2022-10-18T14:27:41.629Z,1021.86
2022-10-18T14:28:59.004Z,1021.86
2022-10-18T14:29:41.768Z,1021.86
2022-10-18T14:30:41.562Z,1021.86
2022-10-18T14:44:41.266Z,1021.89
2022-10-18T14:45:41.243Z,1021.85
2022-10-18T14:46:41.227Z,1021.83
2022-10-18T14:47:41.199Z,1021.85
2022-10-18T14:48:41.176Z,1021.82
2022-10-18T14:49:41.158Z,1021.96
2022-10-18T14:50:41.140Z,1021.95
2022-10-18T14:51:41.112Z,1021.95
2022-10-18T14:52:41.092Z,1021.91
2022-10-18T14:53:41.077Z,1021.93
2022-10-18T14:54:41.072Z,1021.91
2022-10-18T14:55:41.030Z,1021.86
2022-10-18T14:56:41.011Z,1021.94
2022-10-18T14:57:40.988Z,1021.92
2022-10-18T14:58:40.965Z,1021.90
2022-10-18T14:59:40.944Z,1021.89
2022-10-18T15:00:42.839Z,1021.90
2022-10-18T15:01:40.974Z,1021.90
2022-10-18T15:02:40.882Z,1021.92
2022-10-18T15:03:40.860Z,1021.91
2022-10-18T15:04:40.842Z,1021.94
2022-10-18T15:05:40.816Z,1021.94
2022-10-18T15:06:40.797Z,1021.98
2022-10-18T15:18:40.546Z,1022.06
2022-10-18T15:19:40.524Z,1022.08
2022-10-18T15:20:40.503Z,1022.08
2022-10-18T15:21:40.478Z,1022.03
2022-10-18T15:22:40.458Z,1022.02
2022-10-18T15:23:40.434Z,1022.02
2022-10-18T15:24:40.416Z,1022.02
2022-10-18T15:25:40.393Z,1022.04
2022-10-18T15:26:40.392Z,1022.04
2022-10-18T15:28:40.372Z,1021.99
2022-10-18T15:29:40.303Z,1022.03
2022-10-18T15:30:40.288Z,1022.01
2022-10-18T15:31:40.264Z,1022.01
2022-10-18T15:32:40.247Z,1022.04
2022-10-18T15:33:40.223Z,1022.04
2022-10-18T15:34:40.207Z,1022.01
2022-10-18T15:35:40.183Z,1022.05
2022-10-18T15:36:40.202Z,1021.99
2022-10-18T15:37:40.138Z,1022.01
2022-10-18T15:38:40.118Z,1021.98
2022-10-18T15:39:40.096Z,1021.97
2022-10-18T15:40:40.078Z,1022.02
2022-10-18T15:41:40.046Z,1021.97
2022-10-18T15:42:40.058Z,1021.99
2022-10-18T15:43:40.010Z,1021.97
2022-10-18T15:52:39.843Z,1022.04
2022-10-18T15:53:39.794Z,1022.07
2022-10-18T15:54:39.789Z,1022.09
2022-10-18T15:55:39.754Z,1022.11
2022-10-18T15:56:39.733Z,1022.11
2022-10-18T15:57:39.719Z,1022.08
2022-10-18T15:58:39.711Z,1022.09
2022-10-18T15:59:39.667Z,1022.13
2022-10-18T16:00:39.651Z,1022.14
2022-10-18T16:01:39.688Z,1022.14
2022-10-18T16:02:39.605Z,1022.15
2022-10-18T16:03:39.580Z,1022.13
2022-10-18T16:04:39.559Z,1022.11
2022-10-18T16:05:39.538Z,1022.09
2022-10-18T16:06:39.516Z,1022.04
2022-10-18T16:07:39.494Z,1022.10
2022-10-18T16:08:39.475Z,1022.08
2022-10-18T16:09:39.452Z,1022.08
2022-10-18T16:10:39.441Z,1022.09
2022-10-18T16:11:39.406Z,1022.07
2022-10-18T16:12:39.390Z,1022.08
2022-10-18T16:13:39.368Z,1022.07
2022-10-18T16:14:39.370Z,1022.05
2022-10-18T16:15:39.322Z,1022.07
2022-10-18T16:16:39.304Z,1022.04
2022-10-18T16:17:39.279Z,1022.07
2022-10-18T16:18:39.264Z,1022.08
2022-10-18T16:19:39.236Z,1022.09
2022-10-18T16:20:39.219Z,1022.09
2022-10-18T16:21:39.199Z,1022.08
2022-10-18T16:22:39.658Z,1022.10
2022-10-18T16:26:39.087Z,1022.20
2022-10-18T16:27:39.063Z,1022.24
2022-10-18T16:28:39.089Z,1022.27
2022-10-18T16:29:39.028Z,1022.28
2022-10-18T16:30:39.027Z,1022.28
2022-10-18T16:31:38.983Z,1022.28
2022-10-18T16:32:38.961Z,1022.31
2022-10-18T16:33:38.939Z,1022.29
2022-10-18T16:34:38.920Z,1022.32
2022-10-18T16:35:38.894Z,1022.31
2022-10-18T16:36:38.874Z,1022.26
2022-10-18T16:37:38.852Z,1022.29
2022-10-18T16:38:38.836Z,1022.27
2022-10-18T16:39:38.810Z,1022.26
2022-10-18T16:40:41.178Z,1022.25
2022-10-18T16:41:38.762Z,1022.24
2022-10-18T16:42:38.746Z,1022.26
2022-10-18T16:43:38.727Z,1022.26
2022-10-18T16:44:38.703Z,1022.32
2022-10-18T16:45:38.679Z,1022.34
2022-10-18T16:46:38.678Z,1022.31
2022-10-18T16:47:38.640Z,1022.33
2022-10-18T16:48:38.618Z,1022.34
2022-10-18T16:49:38.595Z,1022.35
2022-10-18T16:50:38.570Z,1022.37
2022-10-18T16:51:38.553Z,1022.38
2022-10-18T16:52:38.527Z,1022.36
2022-10-18T16:53:38.509Z,1022.39
2022-10-18T16:54:38.487Z,1022.38
2022-10-18T16:55:38.463Z,1022.41
2022-10-18T16:57:38.428Z,1022.38
2022-10-18T16:58:38.400Z,1022.38
2022-10-18T16:59:38.378Z,1022.38
2022-10-18T17:00:38.356Z,1022.42
2022-10-18T17:01:38.439Z,1022.42
2022-10-18T17:02:38.331Z,1022.44
2022-10-18T17:03:38.284Z,1022.41
2022-10-18T17:04:38.270Z,1022.48
2022-10-18T17:05:38.257Z,1022.46
2022-10-18T17:06:38.227Z,1022.48
2022-10-18T17:07:38.208Z,1022.55
2022-10-18T17:08:38.181Z,1022.54
2022-10-18T17:09:38.162Z,1022.55
2022-10-18T17:10:38.139Z,1022.58
2022-10-18T17:11:38.118Z,1022.65
2022-10-18T17:12:38.094Z,1022.64
2022-10-18T17:13:38.075Z,1022.72
2022-10-18T17:14:38.052Z,1022.75
2022-10-18T17:15:38.029Z,1022.74
2022-10-18T17:16:38.065Z,1022.71
2022-10-18T17:17:37.984Z,1022.69
2022-10-18T17:18:37.988Z,1022.71
2022-10-18T17:19:37.961Z,1022.69
2022-10-18T17:20:37.925Z,1022.67
2022-10-18T17:21:37.907Z,1022.68
2022-10-18T17:22:37.878Z,1022.70
2022-10-18T17:23:37.855Z,1022.68
2022-10-18T17:24:37.834Z,1022.71
2022-10-18T17:25:46.259Z,1022.76
2022-10-18T17:26:37.790Z,1022.78
2022-10-18T17:27:37.768Z,1022.79
2022-10-18T17:28:37.794Z,1022.81
2022-10-18T17:29:37.723Z,1022.84
2022-10-18T17:30:37.704Z,1022.86
2022-10-18T17:31:37.680Z,1022.90
2022-10-18T17:57:37.108Z,1022.98
2022-10-18T17:58:37.086Z,1022.96
2022-10-18T17:59:37.060Z,1022.98
2022-10-18T18:25:36.482Z,1023.03
2022-10-18T18:26:36.458Z,1023.06
2022-10-18T18:27:36.435Z,1023.03
2022-10-18T18:28:36.633Z,1023.02
2022-10-18T18:29:36.396Z,1023.02
2022-10-18T18:54:35.857Z,1023.31
2022-10-18T18:55:35.805Z,1023.38
2022-10-18T18:56:35.779Z,1023.34
2022-10-18T18:57:36.054Z,1023.35
2022-10-18T18:58:35.738Z,1023.35
2022-10-18T18:59:35.711Z,1023.38
2022-10-18T19:00:38.174Z,1023.35
2022-10-18T19:01:35.889Z,1023.37
2022-10-18T19:06:35.557Z,1023.29
2022-10-18T19:15:35.352Z,1023.31
2022-10-18T19:16:35.327Z,1023.32
2022-10-18T19:17:35.695Z,1023.31
2022-10-18T19:18:35.282Z,1023.30
2022-10-18T19:19:35.262Z,1023.29
2022-10-18T19:20:35.235Z,1023.31
2022-10-18T19:21:35.217Z,1023.30
2022-10-18T19:22:35.198Z,1023.28
2022-10-18T19:23:35.169Z,1023.33
2022-10-18T19:46:34.641Z,1023.34
2022-10-18T19:47:34.622Z,1023.39
2022-10-18T19:48:34.595Z,1023.48
2022-10-18T19:49:34.575Z,1023.45
2022-10-18T19:50:34.555Z,1023.45
2022-10-18T19:51:34.531Z,1023.46
2022-10-18T19:52:35.000Z,1023.48
2022-10-18T19:53:34.491Z,1023.45
2022-10-18T19:54:34.460Z,1023.51
2022-10-18T19:55:34.433Z,1023.50
2022-10-18T19:56:34.413Z,1023.51
2022-10-18T19:57:34.391Z,1023.50
2022-10-18T20:19:33.877Z,1023.40
2022-10-18T20:20:33.858Z,1023.43
2022-10-18T20:21:33.835Z,1023.45
2022-10-18T20:22:34.246Z,1023.39
2022-10-18T20:23:33.790Z,1023.38
2022-10-18T20:24:33.768Z,1023.40
2022-10-18T20:25:33.746Z,1023.37
2022-10-18T20:26:33.724Z,1023.38
2022-10-18T20:27:33.933Z,1023.40
2022-10-18T20:28:33.690Z,1023.46
2022-10-18T20:29:33.650Z,1023.46
2022-10-18T20:30:33.647Z,1023.49
2022-10-18T20:31:33.608Z,1023.49
2022-10-18T20:32:33.578Z,1023.50
2022-10-18T20:33:33.567Z,1023.50
2022-10-18T20:53:33.091Z,1023.54
2022-10-18T20:54:33.078Z,1023.46
2022-10-18T20:55:33.048Z,1023.49
2022-10-18T20:56:33.025Z,1023.47
2022-10-18T20:57:36.381Z,1023.50
2022-10-18T20:58:32.983Z,1023.52
2022-10-18T20:59:32.951Z,1023.49
2022-10-18T21:00:32.930Z,1023.52
2022-10-18T21:01:32.979Z,1023.49
2022-10-18T21:02:32.903Z,1023.52
2022-10-18T21:03:32.860Z,1023.51
2022-10-18T21:04:32.835Z,1023.57
2022-10-18T21:05:32.816Z,1023.55
2022-10-18T21:06:32.791Z,1023.56
2022-10-18T21:07:32.924Z,1023.59
2022-10-18T21:08:32.742Z,1023.59
2022-10-18T21:09:32.725Z,1023.61
2022-10-18T21:10:32.694Z,1023.62
2022-10-18T21:11:32.674Z,1023.64
2022-10-18T21:26:32.317Z,1023.54
2022-10-18T21:27:32.300Z,1023.55
2022-10-18T21:28:32.336Z,1023.54
2022-10-18T21:29:32.250Z,1023.55
2022-10-18T21:30:32.228Z,1023.56
2022-10-18T21:31:32.207Z,1023.56
2022-10-18T21:32:32.495Z,1023.56
2022-10-18T21:33:32.154Z,1023.56
2022-10-18T21:34:32.157Z,1023.58
2022-10-18T21:35:32.107Z,1023.57
2022-10-18T21:36:32.091Z,1023.57
2022-10-18T21:37:32.063Z,1023.57
2022-10-18T21:38:32.039Z,1023.57
2022-10-18T21:39:32.016Z,1023.56
2022-10-18T21:40:31.993Z,1023.56
2022-10-18T21:41:31.968Z,1023.56
2022-10-18T21:42:32.321Z,1023.56
2022-10-18T21:43:31.927Z,1023.55
2022-10-18T21:44:31.894Z,1023.50
2022-10-18T21:45:31.872Z,1023.51
2022-10-18T21:46:31.855Z,1023.47
2022-10-18T21:47:31.830Z,1023.47
2022-10-18T21:48:31.802Z,1023.47
2022-10-18T22:01:31.616Z,1023.36
2022-10-18T22:02:31.915Z,1023.32
2022-10-18T22:03:31.457Z,1023.31
2022-10-18T22:04:31.430Z,1023.26
2022-10-18T22:05:31.407Z,1023.27
2022-10-18T22:06:31.428Z,1023.19
2022-10-18T22:07:31.662Z,1023.23
2022-10-18T22:08:31.341Z,1023.17
2022-10-18T22:09:31.312Z,1023.21
2022-10-18T22:10:31.296Z,1023.20
2022-10-18T22:11:31.265Z,1023.23
2022-10-18T22:12:31.244Z,1023.22
2022-10-18T22:13:31.222Z,1023.22
2022-10-18T22:14:31.194Z,1023.21
2022-10-18T22:15:31.257Z,1023.18
2022-10-18T22:16:31.143Z,1023.16
2022-10-18T22:17:31.594Z,1023.17
2022-10-18T22:18:31.098Z,1023.15
2022-10-18T22:19:31.079Z,1023.13
2022-10-18T22:20:31.048Z,1023.13